createdAt,value
2023-03-07T00:00:09.498Z,6.58
2023-03-07T00:01:09.593Z,6.53
2023-03-07T00:02:09.459Z,6.56
2023-03-07T00:03:09.517Z,6.53
2023-03-07T00:04:09.527Z,6.54
2023-03-07T00:05:09.426Z,6.51
2023-03-07T00:06:09.518Z,6.56
2023-03-07T00:07:09.460Z,6.61
2023-03-07T00:08:09.366Z,6.54
2023-03-07T00:09:09.391Z,6.54
2023-03-07T00:10:09.373Z,6.53
2023-03-07T00:11:09.337Z,6.50
2023-03-07T00:12:09.356Z,6.53
2023-03-07T00:13:09.349Z,6.63
2023-03-07T00:14:09.310Z,6.61
2023-03-07T00:15:09.312Z,6.65
2023-03-07T00:16:09.327Z,6.65
2023-03-07T00:17:09.320Z,6.69
2023-03-07T00:18:09.285Z,6.73
2023-03-07T00:19:09.244Z,6.81
2023-03-07T00:20:09.217Z,6.80
2023-03-07T00:21:09.219Z,6.79
2023-03-07T00:22:09.213Z,6.81
2023-03-07T00:23:09.176Z,6.76
2023-03-07T00:24:09.209Z,6.77
2023-03-07T00:25:09.180Z,6.79
2023-03-07T00:26:09.184Z,6.79
2023-03-07T00:27:09.154Z,6.80
2023-03-07T00:28:09.143Z,6.80
2023-03-07T00:29:09.093Z,6.79
2023-03-07T00:30:09.102Z,6.72
2023-03-07T00:31:09.243Z,6.72
2023-03-07T00:32:09.172Z,6.63
2023-03-07T00:33:09.105Z,6.68
2023-03-07T00:34:09.064Z,6.76
2023-03-07T00:35:09.031Z,6.77
2023-03-07T00:36:09.016Z,6.76
2023-03-07T00:37:09.070Z,6.77
2023-03-07T00:38:09.011Z,6.79
2023-03-07T00:39:08.965Z,6.76
2023-03-07T00:40:09.019Z,6.73
2023-03-07T00:41:08.990Z,6.69
2023-03-07T00:42:08.927Z,6.66
2023-03-07T00:43:09.000Z,6.73
2023-03-07T00:44:08.911Z,6.80
2023-03-07T00:45:08.872Z,6.63
2023-03-07T00:46:09.029Z,6.63
2023-03-07T00:47:08.871Z,6.69
2023-03-07T00:48:08.871Z,6.72
2023-03-07T00:49:08.873Z,6.79
2023-03-07T00:50:08.835Z,6.73
2023-03-07T00:51:08.797Z,6.73
2023-03-07T00:52:08.844Z,6.71
2023-03-07T00:53:08.773Z,6.71
2023-03-07T00:54:08.787Z,6.76
2023-03-07T00:55:08.781Z,6.76
2023-03-07T00:56:08.775Z,6.77
2023-03-07T00:57:08.729Z,6.77
2023-03-07T00:58:08.762Z,6.72
2023-03-07T00:59:08.693Z,6.61
2023-03-07T01:00:08.686Z,6.58
2023-03-07T01:01:08.750Z,6.65
2023-03-07T01:02:08.650Z,6.66
2023-03-07T01:03:08.639Z,6.62
2023-03-07T01:04:08.697Z,6.61
2023-03-07T01:05:08.611Z,6.54
2023-03-07T01:06:19.800Z,6.61
2023-03-07T01:07:15.605Z,6.68
2023-03-07T01:08:15.548Z,6.77
2023-03-07T01:09:08.561Z,6.77
2023-03-07T01:10:08.578Z,6.58
2023-03-07T01:11:08.561Z,6.50
2023-03-07T01:12:08.548Z,6.46
2023-03-07T01:13:08.640Z,6.54
2023-03-07T01:14:08.485Z,6.53
2023-03-07T01:15:08.563Z,6.56
2023-03-07T01:16:08.534Z,6.59
2023-03-07T01:17:08.642Z,6.66
2023-03-07T01:18:08.458Z,6.63
2023-03-07T01:19:08.430Z,6.56
2023-03-07T01:20:08.435Z,6.51
2023-03-07T01:21:08.468Z,6.46
2023-03-07T01:22:08.389Z,6.47
2023-03-07T01:23:08.430Z,6.50
2023-03-07T01:24:08.395Z,6.56
2023-03-07T01:25:08.436Z,6.56
2023-03-07T01:26:08.416Z,6.48
2023-03-07T01:27:08.337Z,6.36
2023-03-07T01:28:08.344Z,6.43
2023-03-07T01:29:08.411Z,6.44
2023-03-07T01:30:08.307Z,6.38
2023-03-07T01:31:08.330Z,6.30
2023-03-07T01:32:08.466Z,6.32
2023-03-07T01:33:08.324Z,6.33
2023-03-07T01:34:08.261Z,6.38
2023-03-07T01:35:08.264Z,6.38
2023-03-07T01:36:08.355Z,6.33
2023-03-07T01:37:08.270Z,6.43
2023-03-07T01:38:08.194Z,6.47
2023-03-07T01:39:08.195Z,6.41
2023-03-07T01:40:08.255Z,6.48
2023-03-07T01:41:08.164Z,6.58
2023-03-07T01:42:08.138Z,6.61
2023-03-07T01:43:08.218Z,6.61
2023-03-07T01:44:08.134Z,6.56
2023-03-07T01:45:08.187Z,6.54
2023-03-07T01:46:08.258Z,6.59
2023-03-07T01:47:08.068Z,6.51
2023-03-07T01:48:08.123Z,6.53
2023-03-07T01:49:08.084Z,6.54
2023-03-07T01:50:08.114Z,6.54
2023-03-07T01:51:08.035Z,6.54
2023-03-07T01:52:08.052Z,6.58
2023-03-07T01:53:08.051Z,6.59
2023-03-07T01:54:07.983Z,6.59
2023-03-07T01:55:07.981Z,6.65
2023-03-07T01:56:07.971Z,6.69
2023-03-07T01:57:07.959Z,6.61
2023-03-07T01:58:07.980Z,6.62
2023-03-07T01:59:07.939Z,6.62
2023-03-07T02:00:07.920Z,6.48
2023-03-07T02:01:08.015Z,6.36
2023-03-07T02:02:07.887Z,6.36
2023-03-07T02:03:08.560Z,6.29
2023-03-07T02:04:08.023Z,6.22
2023-03-07T02:05:07.854Z,6.21
2023-03-07T02:06:07.834Z,6.32
2023-03-07T02:07:07.845Z,6.29
2023-03-07T02:08:07.847Z,6.14
2023-03-07T02:09:07.777Z,6.03
2023-03-07T02:10:07.832Z,6.06
2023-03-07T02:11:07.785Z,6.07
2023-03-07T02:12:07.745Z,6.06
2023-03-07T02:13:07.797Z,6.07
2023-03-07T02:14:07.726Z,5.95
2023-03-07T02:15:07.713Z,5.93
2023-03-07T02:16:07.891Z,5.95
2023-03-07T02:17:07.704Z,5.98
2023-03-07T02:18:07.674Z,6.01
2023-03-07T02:19:07.691Z,6.06
2023-03-07T02:20:07.634Z,6.06
2023-03-07T02:21:07.659Z,5.98
2023-03-07T02:22:07.724Z,6.01
2023-03-07T02:23:07.666Z,6.01
2023-03-07T02:24:07.613Z,6.01
2023-03-07T02:25:07.719Z,5.93
2023-03-07T02:26:07.607Z,5.83
2023-03-07T02:27:07.573Z,5.82
2023-03-07T02:28:07.641Z,5.88
2023-03-07T02:29:07.724Z,5.83
2023-03-07T02:30:07.506Z,5.82
2023-03-07T02:31:07.557Z,5.82
2023-03-07T02:32:07.567Z,5.82
2023-03-07T02:33:07.477Z,5.93
2023-03-07T02:34:07.503Z,5.88
2023-03-07T02:35:07.515Z,5.92
2023-03-07T02:36:07.436Z,5.88
2023-03-07T02:37:07.482Z,5.89
2023-03-07T02:38:07.412Z,6.00
2023-03-07T02:39:07.404Z,5.93
2023-03-07T02:40:07.440Z,5.92
2023-03-07T02:41:07.393Z,5.92
2023-03-07T02:42:07.413Z,5.86
2023-03-07T02:43:07.409Z,5.78
2023-03-07T02:44:07.355Z,5.74
2023-03-07T02:45:07.333Z,5.75
2023-03-07T02:46:07.432Z,5.71
2023-03-07T02:47:07.323Z,5.70
2023-03-07T02:48:07.292Z,5.73
2023-03-07T02:49:07.327Z,5.74
2023-03-07T02:50:07.252Z,5.78
2023-03-07T02:51:07.249Z,5.82
2023-03-07T02:52:07.285Z,5.75
2023-03-07T02:53:07.312Z,5.75
2023-03-07T02:54:07.262Z,5.66
2023-03-07T02:55:07.225Z,5.57
2023-03-07T02:56:07.241Z,5.66
2023-03-07T02:57:07.182Z,5.70
2023-03-07T02:58:07.227Z,5.78
2023-03-07T02:59:07.181Z,5.75
2023-03-07T03:00:07.191Z,5.77
2023-03-07T03:01:07.239Z,5.85
2023-03-07T03:02:07.117Z,5.78
2023-03-07T03:03:07.199Z,5.71
2023-03-07T03:04:07.127Z,5.74
2023-03-07T03:05:07.134Z,5.77
2023-03-07T03:06:07.062Z,5.85
2023-03-07T03:07:07.106Z,5.83
2023-03-07T03:08:07.058Z,5.68
2023-03-07T03:09:07.070Z,5.74
2023-03-07T03:10:07.106Z,5.73
2023-03-07T03:11:07.015Z,5.78
2023-03-07T03:12:07.016Z,5.77
2023-03-07T03:13:07.028Z,5.75
2023-03-07T03:14:06.988Z,5.81
2023-03-07T03:15:07.004Z,5.82
2023-03-07T03:16:07.067Z,5.86
2023-03-07T03:17:06.922Z,5.82
2023-03-07T03:18:06.913Z,5.81
2023-03-07T03:19:06.969Z,5.75
2023-03-07T03:20:06.916Z,5.81
2023-03-07T03:21:06.943Z,5.86
2023-03-07T03:22:06.916Z,5.85
2023-03-07T03:23:06.863Z,5.85
2023-03-07T03:24:06.873Z,5.86
2023-03-07T03:25:06.881Z,5.89
2023-03-07T03:26:06.797Z,5.89
2023-03-07T03:27:06.834Z,5.92
2023-03-07T03:28:06.827Z,5.88
2023-03-07T03:29:06.780Z,5.81
2023-03-07T03:30:06.773Z,5.85
2023-03-07T03:31:06.869Z,5.82
2023-03-07T03:32:06.776Z,5.85
2023-03-07T03:33:06.752Z,5.78
2023-03-07T03:34:06.743Z,5.78
2023-03-07T03:35:06.706Z,5.82
2023-03-07T03:36:06.743Z,5.83
2023-03-07T03:37:06.707Z,5.78
2023-03-07T03:38:06.662Z,5.81
2023-03-07T03:39:06.677Z,5.83
2023-03-07T03:40:06.727Z,5.83
2023-03-07T03:41:06.684Z,5.82
2023-03-07T03:42:06.631Z,5.83
2023-03-07T03:43:06.643Z,5.70
2023-03-07T03:44:06.596Z,5.81
2023-03-07T03:45:06.597Z,5.85
2023-03-07T03:46:06.605Z,5.96
2023-03-07T03:47:06.591Z,5.93
2023-03-07T03:48:06.513Z,5.82
2023-03-07T03:49:06.603Z,5.82
2023-03-07T03:50:06.604Z,5.75
2023-03-07T03:51:06.566Z,5.75
2023-03-07T03:52:06.578Z,5.82
2023-03-07T03:53:06.469Z,5.86
2023-03-07T03:54:06.439Z,5.96
2023-03-07T03:55:06.561Z,6.07
2023-03-07T03:56:06.422Z,6.07
2023-03-07T03:57:06.423Z,6.06
2023-03-07T03:58:06.422Z,5.96
2023-03-07T03:59:06.390Z,5.93
2023-03-07T04:00:06.388Z,5.98
2023-03-07T04:01:06.413Z,6.00
2023-03-07T04:02:06.522Z,6.09
2023-03-07T04:03:06.362Z,6.00
2023-03-07T04:04:06.364Z,6.00
2023-03-07T04:05:06.310Z,5.95
2023-03-07T04:06:06.319Z,6.04
2023-03-07T04:07:06.351Z,6.07
2023-03-07T04:08:06.256Z,6.04
2023-03-07T04:09:06.268Z,6.11
2023-03-07T04:10:06.289Z,6.07
2023-03-07T04:11:06.261Z,6.11
2023-03-07T04:12:06.205Z,6.10
2023-03-07T04:13:06.231Z,6.10
2023-03-07T04:14:06.233Z,6.16
2023-03-07T04:15:06.203Z,6.16
2023-03-07T04:16:06.262Z,6.19
2023-03-07T04:17:06.164Z,6.19
2023-03-07T04:18:06.123Z,6.29
2023-03-07T04:19:06.191Z,6.29
2023-03-07T04:20:06.114Z,6.21
2023-03-07T04:21:06.143Z,6.26
2023-03-07T04:22:06.107Z,6.30
2023-03-07T04:23:06.072Z,6.33
2023-03-07T04:24:06.052Z,6.29
2023-03-07T04:25:06.109Z,6.26
2023-03-07T04:26:06.122Z,6.19
2023-03-07T04:27:06.003Z,6.11
2023-03-07T04:28:06.069Z,6.21
2023-03-07T04:29:06.024Z,6.28
2023-03-07T04:30:05.984Z,6.16
2023-03-07T04:31:06.011Z,6.19
2023-03-07T04:32:06.222Z,6.18
2023-03-07T04:33:05.940Z,6.18
2023-03-07T04:34:05.978Z,6.26
2023-03-07T04:35:05.933Z,6.33
2023-03-07T04:36:05.986Z,6.36
2023-03-07T04:37:05.961Z,6.30
2023-03-07T04:38:05.946Z,6.32
2023-03-07T04:39:05.927Z,6.22
2023-03-07T04:40:05.870Z,6.18
2023-03-07T04:41:05.896Z,6.22
2023-03-07T04:42:05.817Z,6.26
2023-03-07T04:43:05.821Z,6.33
2023-03-07T04:44:05.794Z,6.41
2023-03-07T04:45:05.820Z,6.33
2023-03-07T04:46:05.792Z,6.32
2023-03-07T04:47:05.759Z,6.30
2023-03-07T04:48:05.760Z,6.32
2023-03-07T04:49:05.745Z,6.33
2023-03-07T04:50:05.720Z,6.44
2023-03-07T04:51:05.742Z,6.36
2023-03-07T04:52:05.694Z,6.33
2023-03-07T04:53:05.672Z,6.41
2023-03-07T04:54:05.690Z,6.35
2023-03-07T04:55:05.679Z,6.41
2023-03-07T04:56:05.640Z,6.44
2023-03-07T04:57:05.689Z,6.38
2023-03-07T04:58:05.632Z,6.43
2023-03-07T04:59:05.598Z,6.48
2023-03-07T05:00:05.579Z,6.59
2023-03-07T05:01:05.799Z,6.65
2023-03-07T05:02:05.567Z,6.47
2023-03-07T05:03:05.564Z,6.40
2023-03-07T05:04:05.606Z,6.43
2023-03-07T05:05:05.543Z,6.47
2023-03-07T05:06:05.532Z,6.44
2023-03-07T05:07:05.531Z,6.41
2023-03-07T05:08:05.518Z,6.46
2023-03-07T05:09:05.473Z,6.46
2023-03-07T05:10:05.483Z,6.54
2023-03-07T05:11:05.443Z,6.50
2023-03-07T05:12:05.453Z,6.54
2023-03-07T05:13:05.504Z,6.61
2023-03-07T05:14:05.399Z,6.54
2023-03-07T05:15:05.397Z,6.59
2023-03-07T05:16:05.461Z,6.54
2023-03-07T05:17:05.408Z,6.51
2023-03-07T05:18:05.376Z,6.53
2023-03-07T05:19:06.258Z,6.54
2023-03-07T05:20:05.390Z,6.54
2023-03-07T05:21:05.316Z,6.58
2023-03-07T05:22:05.360Z,6.56
2023-03-07T05:23:05.344Z,6.63
2023-03-07T05:24:05.300Z,6.65
2023-03-07T05:25:05.306Z,6.65
2023-03-07T05:26:05.338Z,6.61
2023-03-07T05:27:05.268Z,6.66
2023-03-07T05:28:05.231Z,6.71
2023-03-07T05:29:05.214Z,6.69
2023-03-07T05:30:05.229Z,6.61
2023-03-07T05:31:05.219Z,6.62
2023-03-07T05:32:05.251Z,6.61
2023-03-07T05:33:05.190Z,6.61
2023-03-07T05:34:05.163Z,6.66
2023-03-07T05:35:05.163Z,6.72
2023-03-07T05:36:05.225Z,6.76
2023-03-07T05:37:05.166Z,6.80
2023-03-07T05:38:05.134Z,6.84
2023-03-07T05:39:05.141Z,6.68
2023-03-07T05:40:05.061Z,6.62
2023-03-07T05:41:05.048Z,6.73
2023-03-07T05:42:05.043Z,6.76
2023-03-07T05:43:05.071Z,6.84
2023-03-07T05:44:05.072Z,6.89
2023-03-07T05:45:05.015Z,6.89
2023-03-07T05:46:05.019Z,6.94
2023-03-07T05:47:05.044Z,6.89
2023-03-07T05:48:05.010Z,6.89
2023-03-07T05:49:04.935Z,6.79
2023-03-07T05:50:05.034Z,6.76
2023-03-07T05:51:04.924Z,6.76
2023-03-07T05:52:04.940Z,6.80
2023-03-07T05:53:04.991Z,6.87
2023-03-07T05:54:04.899Z,6.86
2023-03-07T05:55:04.852Z,6.86
2023-03-07T05:56:04.897Z,6.81
2023-03-07T05:57:04.848Z,6.84
2023-03-07T05:58:04.852Z,6.84
2023-03-07T05:59:04.887Z,6.87
2023-03-07T06:00:04.803Z,6.91
2023-03-07T06:01:04.789Z,6.94
2023-03-07T06:02:04.856Z,6.94
2023-03-07T06:03:04.771Z,6.84
2023-03-07T06:04:04.808Z,6.89
2023-03-07T06:05:04.744Z,6.95
2023-03-07T06:06:04.713Z,7.02
2023-03-07T06:07:04.702Z,7.07
2023-03-07T06:08:04.725Z,6.97
2023-03-07T06:09:04.692Z,7.01
2023-03-07T06:10:04.662Z,7.01
2023-03-07T06:11:04.644Z,7.01
2023-03-07T06:12:04.651Z,7.01
2023-03-07T06:13:04.625Z,7.04
2023-03-07T06:14:04.663Z,6.95
2023-03-07T06:15:04.663Z,7.01
2023-03-07T06:16:04.631Z,7.04
2023-03-07T06:17:04.581Z,7.08
2023-03-07T06:18:04.599Z,7.05
2023-03-07T06:19:04.543Z,7.02
2023-03-07T06:20:04.593Z,6.99
2023-03-07T06:21:04.560Z,6.97
2023-03-07T06:22:04.510Z,7.01
2023-03-07T06:23:04.520Z,7.02
2023-03-07T06:24:04.520Z,7.02
2023-03-07T06:25:04.482Z,6.99
2023-03-07T06:26:04.468Z,7.08
2023-03-07T06:27:04.428Z,7.04
2023-03-07T06:28:04.420Z,6.98
2023-03-07T06:29:04.431Z,6.98
2023-03-07T06:30:04.390Z,7.04
2023-03-07T06:31:04.400Z,6.99
2023-03-07T06:32:04.460Z,6.94
2023-03-07T06:33:04.370Z,6.89
2023-03-07T06:34:04.339Z,6.91
2023-03-07T06:35:04.990Z,6.90
2023-03-07T06:36:04.406Z,6.83
2023-03-07T06:37:04.330Z,6.81
2023-03-07T06:38:04.354Z,6.83
2023-03-07T06:39:04.277Z,6.79
2023-03-07T06:40:04.288Z,6.79
2023-03-07T06:41:04.283Z,6.77
2023-03-07T06:42:04.279Z,6.86
2023-03-07T06:43:04.262Z,6.79
2023-03-07T06:44:04.251Z,6.77
2023-03-07T06:45:04.282Z,6.95
2023-03-07T06:46:04.240Z,7.02
2023-03-07T06:47:04.220Z,7.07
2023-03-07T06:48:04.141Z,7.08
2023-03-07T06:49:04.130Z,7.07
2023-03-07T06:50:04.188Z,6.95
2023-03-07T06:51:04.099Z,7.01
2023-03-07T06:52:04.171Z,7.07
2023-03-07T06:53:04.130Z,7.12
2023-03-07T06:54:04.136Z,7.07
2023-03-07T06:55:04.083Z,7.04
2023-03-07T06:56:04.109Z,6.95
2023-03-07T06:57:04.047Z,6.99
2023-03-07T06:58:04.047Z,7.05
2023-03-07T06:59:04.043Z,7.12
2023-03-07T07:00:04.039Z,6.95
2023-03-07T07:01:03.987Z,6.98
2023-03-07T07:02:04.176Z,6.97
2023-03-07T07:03:04.082Z,6.99
2023-03-07T07:04:03.971Z,6.95
2023-03-07T07:05:03.927Z,6.91
2023-03-07T07:06:03.937Z,6.89
2023-03-07T07:07:03.891Z,6.91
2023-03-07T07:08:03.883Z,6.95
2023-03-07T07:09:03.913Z,6.99
2023-03-07T07:10:03.877Z,6.99
2023-03-07T07:11:03.831Z,6.94
2023-03-07T07:12:03.893Z,6.81
2023-03-07T07:13:03.816Z,6.87
2023-03-07T07:14:03.824Z,6.97
2023-03-07T07:15:03.829Z,6.90
2023-03-07T07:16:03.865Z,6.95
2023-03-07T07:17:03.764Z,7.02
2023-03-07T07:18:03.838Z,6.94
2023-03-07T07:19:03.715Z,6.94
2023-03-07T07:20:03.728Z,6.83
2023-03-07T07:21:03.752Z,6.94
2023-03-07T07:22:03.734Z,7.07
2023-03-07T07:23:03.688Z,7.08
2023-03-07T07:24:03.673Z,7.12
2023-03-07T07:25:03.654Z,7.19
2023-03-07T07:26:03.676Z,7.13
2023-03-07T07:27:03.621Z,7.22
2023-03-07T07:28:03.624Z,7.23
2023-03-07T07:29:03.614Z,7.22
2023-03-07T07:30:03.611Z,7.09
2023-03-07T07:31:03.570Z,7.19
2023-03-07T07:32:03.801Z,7.27
2023-03-07T07:33:03.728Z,7.31
2023-03-07T07:34:03.565Z,7.42
2023-03-07T07:35:03.580Z,7.49
2023-03-07T07:36:03.559Z,7.45
2023-03-07T07:37:03.498Z,7.50
2023-03-07T07:38:03.479Z,7.50
2023-03-07T07:39:03.493Z,7.50
2023-03-07T07:40:03.488Z,7.52
2023-03-07T07:41:03.503Z,7.47
2023-03-07T07:42:03.415Z,7.59
2023-03-07T07:43:03.437Z,7.59
2023-03-07T07:44:03.402Z,7.60
2023-03-07T07:45:03.421Z,7.60
2023-03-07T07:46:03.463Z,7.69
2023-03-07T07:47:03.349Z,7.84
2023-03-07T07:48:03.357Z,7.90
2023-03-07T07:49:03.380Z,7.75
2023-03-07T07:50:03.354Z,7.87
2023-03-07T07:51:03.312Z,7.79
2023-03-07T07:52:03.345Z,7.85
2023-03-07T07:53:03.277Z,7.92
2023-03-07T07:54:03.286Z,7.93
2023-03-07T07:55:03.415Z,8.04
2023-03-07T07:56:03.271Z,8.07
2023-03-07T07:57:03.218Z,8.17
2023-03-07T07:58:03.366Z,8.10
2023-03-07T07:59:03.217Z,8.07
2023-03-07T08:00:03.239Z,7.97
2023-03-07T08:01:03.261Z,7.97
2023-03-07T08:02:03.267Z,8.00
2023-03-07T08:03:03.164Z,7.96
2023-03-07T08:04:03.190Z,7.97
2023-03-07T08:05:03.237Z,8.02
2023-03-07T08:06:03.106Z,7.97
2023-03-07T08:07:03.078Z,7.92
2023-03-07T08:08:03.129Z,7.78
2023-03-07T08:09:03.073Z,7.84
2023-03-07T08:10:03.072Z,7.92
2023-03-07T08:11:03.142Z,7.92
2023-03-07T08:12:03.158Z,7.85
2023-03-07T08:13:02.998Z,7.84
2023-03-07T08:14:03.107Z,7.94
2023-03-07T08:15:03.040Z,8.07
2023-03-07T08:16:03.049Z,8.12
2023-03-07T08:17:03.001Z,8.10
2023-03-07T08:18:02.973Z,7.99
2023-03-07T08:19:02.968Z,8.03
2023-03-07T08:20:02.998Z,8.15
2023-03-07T08:21:02.919Z,8.15
2023-03-07T08:22:02.952Z,8.14
2023-03-07T08:23:02.908Z,8.12
2023-03-07T08:24:02.877Z,8.25
2023-03-07T08:25:02.870Z,8.21
2023-03-07T08:26:04.716Z,8.26
2023-03-07T08:27:02.843Z,8.28
2023-03-07T08:28:02.832Z,8.20
2023-03-07T08:29:02.895Z,8.14
2023-03-07T08:30:02.802Z,8.17
2023-03-07T08:31:02.810Z,8.28
2023-03-07T08:32:03.066Z,8.32
2023-03-07T08:33:02.782Z,8.35
2023-03-07T08:34:02.761Z,8.35
2023-03-07T08:35:02.719Z,8.33
2023-03-07T08:36:02.873Z,8.39
2023-03-07T08:37:02.731Z,8.44
2023-03-07T08:38:02.717Z,8.45
2023-03-07T08:39:02.672Z,8.48
2023-03-07T08:40:02.679Z,8.45
2023-03-07T08:41:02.652Z,8.40
2023-03-07T08:42:02.740Z,8.45
2023-03-07T08:43:02.682Z,8.55
2023-03-07T08:44:02.619Z,8.57
2023-03-07T08:45:02.596Z,8.51
2023-03-07T08:46:02.654Z,8.51
2023-03-07T08:47:02.593Z,8.45
2023-03-07T08:48:02.588Z,8.53
2023-03-07T08:49:02.547Z,8.53
2023-03-07T08:50:02.556Z,8.57
2023-03-07T08:51:02.534Z,8.53
2023-03-07T08:52:02.525Z,8.62
2023-03-07T08:53:02.544Z,8.72
2023-03-07T08:54:02.536Z,8.68
2023-03-07T08:55:02.458Z,8.72
2023-03-07T08:56:02.457Z,8.76
2023-03-07T08:57:02.523Z,8.72
2023-03-07T08:58:02.409Z,8.71
2023-03-07T08:59:02.440Z,8.76
2023-03-07T09:00:02.444Z,8.65
2023-03-07T09:01:02.363Z,8.60
2023-03-07T09:02:02.444Z,8.69
2023-03-07T09:03:02.446Z,8.73
2023-03-07T09:04:02.336Z,8.55
2023-03-07T09:05:02.421Z,8.62
2023-03-07T09:06:02.378Z,8.68
2023-03-07T09:07:02.309Z,8.71
2023-03-07T09:08:02.297Z,8.65
2023-03-07T09:09:02.309Z,8.62
2023-03-07T09:10:02.326Z,8.68
2023-03-07T09:11:02.301Z,8.72
2023-03-07T09:12:02.277Z,8.71
2023-03-07T09:13:02.222Z,8.86
2023-03-07T09:14:02.350Z,8.97
2023-03-07T09:15:02.177Z,8.81
2023-03-07T09:16:02.224Z,8.73
2023-03-07T09:17:02.241Z,8.72
2023-03-07T09:18:02.172Z,8.69
2023-03-07T09:19:02.141Z,8.72
2023-03-07T09:20:02.142Z,8.79
2023-03-07T09:21:02.170Z,8.71
2023-03-07T09:22:02.132Z,8.79
2023-03-07T09:23:02.070Z,8.78
2023-03-07T09:24:02.168Z,8.88
2023-03-07T09:25:02.102Z,8.86
2023-03-07T09:26:02.035Z,8.83
2023-03-07T09:27:02.041Z,8.83
2023-03-07T09:28:02.109Z,8.79
2023-03-07T09:29:02.007Z,8.96
2023-03-07T09:30:02.067Z,9.06
2023-03-07T09:31:01.973Z,8.96
2023-03-07T09:32:01.991Z,8.91
2023-03-07T09:33:01.961Z,8.71
2023-03-07T09:34:01.972Z,8.84
2023-03-07T09:35:01.969Z,8.90
2023-03-07T09:36:01.995Z,8.90
2023-03-07T09:37:01.941Z,8.91
2023-03-07T09:38:01.951Z,8.79
2023-03-07T09:39:01.908Z,8.65
2023-03-07T09:40:01.856Z,8.62
2023-03-07T09:41:01.893Z,8.68
2023-03-07T09:42:01.871Z,8.71
2023-03-07T09:43:01.828Z,8.75
2023-03-07T09:44:01.798Z,8.84
2023-03-07T09:45:01.880Z,8.90
2023-03-07T09:46:01.826Z,8.81
2023-03-07T09:47:01.761Z,8.76
2023-03-07T09:48:01.874Z,8.69
2023-03-07T09:49:01.828Z,8.72
2023-03-07T09:50:01.735Z,8.72
2023-03-07T09:51:10.346Z,8.78
2023-03-07T09:52:02.707Z,8.83
2023-03-07T09:53:01.703Z,8.84
2023-03-07T09:54:01.771Z,8.94
2023-03-07T09:55:01.740Z,8.81
2023-03-07T09:56:01.656Z,8.78
2023-03-07T09:57:01.666Z,8.90
2023-03-07T09:58:01.700Z,8.84
2023-03-07T09:59:03.637Z,8.88
2023-03-07T10:00:01.649Z,8.73
2023-03-07T10:01:01.769Z,8.62
2023-03-07T10:02:01.661Z,8.72
2023-03-07T10:03:01.573Z,8.81
2023-03-07T10:04:01.663Z,8.94
2023-03-07T10:05:01.562Z,9.10
2023-03-07T10:06:01.591Z,9.10
2023-03-07T10:07:01.549Z,8.94
2023-03-07T10:08:01.524Z,8.93
2023-03-07T10:09:01.492Z,8.87
2023-03-07T10:10:01.482Z,8.91
2023-03-07T10:11:01.504Z,8.81
2023-03-07T10:12:03.337Z,8.83
2023-03-07T10:13:01.503Z,8.75
2023-03-07T10:14:01.398Z,8.65
2023-03-07T10:15:01.394Z,8.54
2023-03-07T10:16:01.416Z,8.55
2023-03-07T10:17:01.518Z,8.58
2023-03-07T10:18:02.717Z,8.60
2023-03-07T10:19:01.384Z,8.68
2023-03-07T10:20:01.409Z,8.58
2023-03-07T10:21:01.320Z,8.66
2023-03-07T10:22:01.313Z,8.79
2023-03-07T10:23:01.303Z,8.68
2023-03-07T10:24:01.328Z,8.53
2023-03-07T10:25:01.250Z,8.54
2023-03-07T10:26:01.419Z,8.58
2023-03-07T10:27:01.245Z,8.68
2023-03-07T10:28:01.228Z,8.76
2023-03-07T10:29:01.305Z,8.75
2023-03-07T10:30:01.251Z,8.84
2023-03-07T10:31:01.204Z,9.04
2023-03-07T10:32:01.272Z,9.01
2023-03-07T10:33:01.637Z,9.04
2023-03-07T10:34:01.155Z,8.94
2023-03-07T10:35:01.134Z,8.84
2023-03-07T10:36:01.245Z,8.65
2023-03-07T10:37:08.939Z,8.68
2023-03-07T10:38:02.162Z,8.68
2023-03-07T10:39:01.097Z,8.63
2023-03-07T10:40:02.016Z,8.65
2023-03-07T10:41:01.077Z,8.69
2023-03-07T10:42:01.101Z,8.76
2023-03-07T10:43:01.071Z,8.87
2023-03-07T10:44:01.049Z,8.86
2023-03-07T10:45:01.018Z,8.96
2023-03-07T10:46:01.009Z,8.94
2023-03-07T10:47:01.024Z,9.13
2023-03-07T10:48:00.984Z,9.21
2023-03-07T10:49:00.968Z,9.09
2023-03-07T10:50:00.976Z,9.09
2023-03-07T10:51:00.942Z,9.06
2023-03-07T10:52:00.925Z,9.01
2023-03-07T10:53:00.891Z,8.99
2023-03-07T10:54:00.983Z,9.09
2023-03-07T10:55:00.841Z,9.23
2023-03-07T10:56:00.839Z,9.39
2023-03-07T10:57:00.873Z,9.30
2023-03-07T10:58:00.821Z,9.42
2023-03-07T10:59:00.866Z,9.43
2023-03-07T11:00:00.869Z,9.34
2023-03-07T11:01:00.878Z,9.35
2023-03-07T11:02:00.762Z,9.16
2023-03-07T11:03:00.767Z,9.12
2023-03-07T11:04:00.798Z,9.23
2023-03-07T11:05:00.803Z,9.24
2023-03-07T11:06:00.719Z,9.12
2023-03-07T11:07:00.830Z,9.13
2023-03-07T11:08:00.750Z,9.05
2023-03-07T11:09:01.688Z,9.06
2023-03-07T11:10:00.658Z,9.27
2023-03-07T11:11:00.707Z,9.40
2023-03-07T11:12:00.705Z,9.28
2023-03-07T11:13:00.597Z,9.24
2023-03-07T11:14:00.645Z,9.15
2023-03-07T11:15:00.577Z,9.13
2023-03-07T11:16:10.948Z,9.12
2023-03-07T11:17:01.636Z,9.05
2023-03-07T11:18:00.548Z,9.21
2023-03-07T11:19:00.530Z,9.38
2023-03-07T11:20:00.535Z,9.52
2023-03-07T11:21:00.546Z,9.56
2023-03-07T11:22:00.475Z,9.35
2023-03-07T11:23:00.569Z,9.45
2023-03-07T11:24:00.561Z,9.24
2023-03-07T11:25:00.480Z,9.24
2023-03-07T11:26:00.486Z,9.20
2023-03-07T11:27:00.471Z,9.21
2023-03-07T11:28:00.402Z,9.20
2023-03-07T11:29:00.392Z,9.20
2023-03-07T11:30:00.401Z,9.21
2023-03-07T11:31:00.429Z,9.27
2023-03-07T11:32:00.438Z,9.27
2023-03-07T11:33:00.374Z,9.15
2023-03-07T11:34:00.370Z,9.04
2023-03-07T11:35:00.339Z,9.09
2023-03-07T11:36:00.449Z,9.06
2023-03-07T11:37:00.323Z,9.13
2023-03-07T11:38:00.396Z,9.21
2023-03-07T11:39:00.288Z,9.32
2023-03-07T11:40:00.322Z,9.42
2023-03-07T11:41:00.254Z,9.30
2023-03-07T11:42:00.244Z,9.31
2023-03-07T11:43:00.196Z,9.25
2023-03-07T11:44:00.275Z,9.34
2023-03-07T11:45:00.170Z,9.43
2023-03-07T11:46:00.175Z,9.48
2023-03-07T11:47:00.172Z,9.25
2023-03-07T11:48:00.133Z,9.23
2023-03-07T11:49:00.144Z,9.38
2023-03-07T11:50:00.168Z,9.28
2023-03-07T11:51:00.167Z,9.40
2023-03-07T11:52:00.109Z,9.24
2023-03-07T11:53:00.203Z,9.10
2023-03-07T11:54:00.059Z,9.18
2023-03-07T11:55:00.110Z,9.13
2023-03-07T11:56:00.128Z,9.25
2023-03-07T11:57:00.017Z,9.42
2023-03-07T11:58:00.005Z,9.50
2023-03-07T11:59:00.063Z,9.53
2023-03-07T11:59:59.979Z,9.57
2023-03-07T12:01:00.053Z,9.49
2023-03-07T12:02:00.012Z,9.48
2023-03-07T12:03:00.013Z,9.43
2023-03-07T12:03:59.938Z,9.34
2023-03-07T12:05:00.048Z,9.28
2023-03-07T12:05:59.929Z,9.13
2023-03-07T12:06:59.927Z,9.09
2023-03-07T12:07:59.910Z,9.12
2023-03-07T12:08:59.951Z,9.13
2023-03-07T12:09:59.910Z,9.20
2023-03-07T12:10:59.840Z,9.28
2023-03-07T12:11:59.831Z,9.39
2023-03-07T12:12:59.890Z,9.46
2023-03-07T12:13:59.790Z,9.53
2023-03-07T12:14:59.840Z,9.45
2023-03-07T12:15:59.817Z,9.38
2023-03-07T12:16:59.796Z,9.35
2023-03-07T12:17:59.813Z,9.39
2023-03-07T12:18:59.781Z,9.52
2023-03-07T12:19:59.751Z,9.45
2023-03-07T12:20:59.807Z,9.39
2023-03-07T12:21:59.728Z,9.40
2023-03-07T12:22:59.700Z,9.45
2023-03-07T12:23:59.663Z,9.42
2023-03-07T12:24:59.770Z,9.46
2023-03-07T12:25:59.661Z,9.45
2023-03-07T12:26:59.627Z,9.42
2023-03-07T12:27:59.664Z,9.53
2023-03-07T12:28:59.606Z,9.61
2023-03-07T12:29:59.612Z,9.52
2023-03-07T12:30:59.682Z,9.60
2023-03-07T12:31:59.643Z,9.45
2023-03-07T12:32:59.612Z,9.35
2023-03-07T12:33:59.556Z,9.46
2023-03-07T12:34:59.544Z,9.42
2023-03-07T12:35:59.567Z,9.32
2023-03-07T12:36:59.612Z,9.35
2023-03-07T12:37:59.495Z,9.43
2023-03-07T12:38:59.478Z,9.56
2023-03-07T12:39:59.526Z,9.35
2023-03-07T12:40:59.533Z,9.46
2023-03-07T12:41:59.489Z,9.49
2023-03-07T12:42:59.525Z,9.45
2023-03-07T12:43:59.403Z,9.52
2023-03-07T12:44:59.402Z,9.53
2023-03-07T12:45:59.544Z,9.53
2023-03-07T12:46:59.402Z,9.50
2023-03-07T12:47:59.418Z,9.49
2023-03-07T12:48:59.434Z,9.48
2023-03-07T12:49:59.339Z,9.42
2023-03-07T12:50:59.320Z,9.30
2023-03-07T12:51:59.348Z,9.39
2023-03-07T12:52:59.306Z,9.35
2023-03-07T12:53:59.275Z,9.42
2023-03-07T12:54:59.315Z,9.53
2023-03-07T12:55:59.272Z,9.53
2023-03-07T12:56:59.516Z,9.57
2023-03-07T12:57:59.373Z,9.57
2023-03-07T12:58:59.213Z,9.43
2023-03-07T12:59:59.228Z,9.24
2023-03-07T13:00:59.371Z,9.24
2023-03-07T13:01:59.222Z,9.28
2023-03-07T13:02:59.155Z,9.27
2023-03-07T13:03:59.197Z,9.38
2023-03-07T13:04:59.210Z,9.30
2023-03-07T13:05:59.301Z,9.30
2023-03-07T13:06:59.180Z,9.25
2023-03-07T13:07:59.261Z,9.38
2023-03-07T13:08:59.099Z,9.38
2023-03-07T13:09:59.089Z,9.39
2023-03-07T13:10:59.077Z,9.32
2023-03-07T13:11:59.081Z,9.32
2023-03-07T13:12:59.084Z,9.40
2023-03-07T13:13:59.076Z,9.43
2023-03-07T13:15:39.884Z,9.39
2023-03-07T13:16:00.023Z,9.27
2023-03-07T13:16:59.133Z,9.32
2023-03-07T13:17:59.024Z,9.38